aviador You're here:

KLBX Decoded Metar

ANGLETON in TX, USA
Report Time2017-07-25 19:53:00
UTC Time2017-07-25 20:32:20
Flight Rules vfr VFR
Wind150° at 08 kt
W.Decomp.*RWY 17: 7.3 kt HW 3.4 kt LCW
W.Rank150° ranks 5
Current wind is below 150° avg. (9.2)
Visibility9999 m
Phenomena:N/A
Clouds:Scattered 030 Hf
Scattered 037 Hf
Broken 044 Hf
Expected CloudBase > 2,800 ft AGL from Temp-Dew spread
Ceiling4,400 ft
Temp33°C (ISA +18)
Dew Point26°C (67% RH)
Heat Index42.2°C
QNH1019 hPa
Density Alt2,313 ft
Elevation20 ft
Report Wrong Elevation
Raw Report
METAR KLBX 251953Z AUTO 15008KT 10SM SCT030 SCT037 BKN044 33/26 A3009
RMK AO2 SLP189 T03280256=

Extra information for KLBX:More info

Metar Taf Metar & Taf Last 4 Metars F.Rules Stats Wind Profile Meteogram Temp Stats Airport Information Weather charts Add Link Nearby VenuesMetar ALERT Operation Metar Decoded Social comments

AIRNAV info for KLBX